Harmony, North Carolina
Current Conditions -  °F | °C
As of 5:15 AM on Thursday 23 Oct 2014 (Local Time) from KSVH Reporting Station
Clear Clear  
Wind Chill: 38°   Ceiling: Unl
Heat Index: 38°   Visibility: 10mi
Dew Point: 37°   Wind: 3mph
Humidity: 95%   Direction: 250°WSW
Pressure: 30.06"   Gusts: NA
Location:  35.96°N, 80.77°W
Report Text: KSVH 230915Z AUTO 25003KT 10SM CLR 03/03 A3006 RMK AO2 T00330025
Loading
Personal Weather Stations






























Interactive Weather Map
Tropical Storm Tracking
New forecast layout! Learn more

10-Day Weather Forecast

Advertisements
Track Severe Weather on mobile